Edelstein, Illinois
Current Conditions -  °F | °C
As of 8:15 PM on Wednesday 17 Dec 2014 (Local Time) from KC75 Reporting Station
Clear Clear  
Wind Chill: 19°   Ceiling: Unl
Heat Index: 19°   Visibility: 10mi
Dew Point: 16°   Wind: 0mph
Humidity: 86%   Direction: NA
Pressure: 30.3"   Gusts: NA
Location:  40.94°N, 89.63°W
Report Text: KC75 180215Z AUTO 00000KT 10SM CLR M07/M09 A3030 RMK AO2 T10701090
Loading
Personal Weather Stations






























Interactive Weather Map New forecast layout! Learn more

10-Day Weather Forecast

Advertisements
Track Severe Weather on mobile